LNR61PN LFPG-LFBO
Flight info
| Callsign | LNR61PN |
|---|---|
| Flight time | 1h 7m |
| Altitude | 35000 |
| Route | ERIXU DCT ETAMO DCT GUERE DCT NARAK |
| Aircraft | A320/M-SDE3FGHIRWY/LB1 |
Departure
| Time | 2026-05-04 17:20 |
|---|---|
| Airport | Charles de Gaulle International Airport (LFPG) |
Arrival
| Time | 2026-05-04 18:27 |
|---|---|
| Airport | Toulouse-Blagnac Airport (LFBO) |
| Time | Latitude | Longitude | Altitude | Speed | Heading |
|---|---|---|---|---|---|
| 2026-05-04 16:44 | 49.00662 | 2.57578 | 361 ft | 0 kts | 248° |
| 2026-05-04 17:04 | 49.00672 | 2.57620 | 359 ft | 4 kts | 258° |
| 2026-05-04 17:05 | 49.00664 | 2.57671 | 361 ft | 0 kts | 356° |
| 2026-05-04 17:08 | 49.00669 | 2.57670 | 357 ft | 4 kts | 356° |
| 2026-05-04 17:08 | 49.00738 | 2.57662 | 354 ft | 11 kts | 354° |
| 2026-05-04 17:09 | 49.00789 | 2.57583 | 356 ft | 11 kts | 278° |
| 2026-05-04 17:09 | 49.00782 | 2.57442 | 357 ft | 14 kts | 264° |
| 2026-05-04 17:09 | 49.00773 | 2.57290 | 357 ft | 15 kts | 263° |
| 2026-05-04 17:10 | 49.00666 | 2.57069 | 356 ft | 15 kts | 255° |
| 2026-05-04 17:10 | 49.00630 | 2.56524 | 354 ft | 20 kts | 265° |
| 2026-05-04 17:11 | 49.00619 | 2.56316 | 354 ft | 20 kts | 265° |
| 2026-05-04 17:11 | 49.00607 | 2.56104 | 354 ft | 20 kts | 263° |
| 2026-05-04 17:11 | 49.00560 | 2.55687 | 354 ft | 22 kts | 265° |
| 2026-05-04 17:12 | 49.00547 | 2.55452 | 357 ft | 22 kts | 265° |
| 2026-05-04 17:12 | 49.00744 | 2.55199 | 354 ft | 21 kts | 344° |
| 2026-05-04 17:13 | 49.01110 | 2.55041 | 356 ft | 25 kts | 344° |
| 2026-05-04 17:14 | 49.01621 | 2.54882 | 358 ft | 25 kts | 355° |
| 2026-05-04 17:14 | 49.01795 | 2.54860 | 354 ft | 25 kts | 355° |
| 2026-05-04 17:14 | 49.01927 | 2.54667 | 357 ft | 15 kts | 265° |
| 2026-05-04 17:15 | 49.01917 | 2.54468 | 361 ft | 24 kts | 265° |
| 2026-05-04 17:15 | 49.01886 | 2.53855 | 357 ft | 29 kts | 265° |
| 2026-05-04 17:16 | 49.01850 | 2.53253 | 355 ft | 28 kts | 265° |
| 2026-05-04 17:16 | 49.01806 | 2.52415 | 354 ft | 25 kts | 265° |
| 2026-05-04 17:17 | 49.01799 | 2.52158 | 354 ft | 20 kts | 292° |
| 2026-05-04 17:17 | 49.02009 | 2.52109 | 354 ft | 0 kts | 355° |
| 2026-05-04 17:19 | 49.02016 | 2.52108 | 354 ft | 6 kts | 355° |
| 2026-05-04 17:19 | 49.02117 | 2.52303 | 354 ft | 19 kts | 85° |
| 2026-05-04 17:20 | 49.02215 | 2.54118 | 357 ft | 149 kts | 85° |
| 2026-05-04 17:20 | 49.02402 | 2.57653 | 1497 ft | 167 kts | 85° |
| 2026-05-04 17:20 | 49.02493 | 2.59417 | 2371 ft | 171 kts | 85° |
| 2026-05-04 17:21 | 49.02697 | 2.63538 | 3232 ft | 218 kts | 86° |
| 2026-05-04 17:21 | 49.02958 | 2.68637 | 4238 ft | 258 kts | 85° |
| 2026-05-04 17:22 | 49.03112 | 2.71399 | 5136 ft | 264 kts | 85° |
| 2026-05-04 17:22 | 49.03267 | 2.74204 | 6048 ft | 268 kts | 85° |
| 2026-05-04 17:23 | 49.03726 | 2.82872 | 8673 ft | 281 kts | 86° |
| 2026-05-04 17:23 | 49.03878 | 2.85870 | 9562 ft | 285 kts | 86° |
| 2026-05-04 17:23 | 49.04139 | 2.92168 | 10577 ft | 318 kts | 94° |
| 2026-05-04 17:24 | 49.03593 | 2.95467 | 11202 ft | 326 kts | 116° |
| 2026-05-04 17:24 | 48.98036 | 3.00841 | 13538 ft | 340 kts | 177° |
| 2026-05-04 17:25 | 48.95664 | 3.00946 | 14256 ft | 343 kts | 178° |
| 2026-05-04 17:25 | 48.90959 | 2.99866 | 15624 ft | 350 kts | 207° |
| 2026-05-04 17:26 | 48.87673 | 2.94533 | 17029 ft | 357 kts | 248° |
| 2026-05-04 17:26 | 48.86271 | 2.83309 | 19015 ft | 365 kts | 259° |
| 2026-05-04 17:27 | 48.85432 | 2.75656 | 20226 ft | 370 kts | 259° |
| 2026-05-04 17:27 | 48.84577 | 2.67954 | 21417 ft | 375 kts | 259° |
| 2026-05-04 17:28 | 48.82980 | 2.60481 | 22568 ft | 377 kts | 239° |
| 2026-05-04 17:29 | 48.78441 | 2.50561 | 24130 ft | 385 kts | 233° |
| 2026-05-04 17:29 | 48.73665 | 2.40681 | 25546 ft | 389 kts | 226° |
| 2026-05-04 17:30 | 48.67029 | 2.33595 | 26975 ft | 393 kts | 210° |
| 2026-05-04 17:31 | 48.62303 | 2.29344 | 27884 ft | 397 kts | 210° |
| 2026-05-04 17:31 | 48.55184 | 2.22950 | 29232 ft | 401 kts | 210° |
| 2026-05-04 17:32 | 48.49975 | 2.19916 | 30060 ft | 406 kts | 191° |
| 2026-05-04 17:33 | 48.41434 | 2.19938 | 31089 ft | 413 kts | 179° |
| 2026-05-04 17:33 | 48.38552 | 2.20180 | 31453 ft | 414 kts | 179° |
| 2026-05-04 17:34 | 48.29892 | 2.20889 | 32478 ft | 418 kts | 179° |
| 2026-05-04 17:34 | 48.26991 | 2.21447 | 32770 ft | 422 kts | 174° |
| 2026-05-04 17:35 | 48.18253 | 2.23566 | 33644 ft | 425 kts | 174° |
| 2026-05-04 17:35 | 48.12394 | 2.24996 | 34172 ft | 428 kts | 174° |
| 2026-05-04 17:35 | 48.09485 | 2.25701 | 34361 ft | 430 kts | 174° |
| 2026-05-04 17:36 | 48.06514 | 2.26095 | 34676 ft | 425 kts | 180° |
| 2026-05-04 17:36 | 48.03578 | 2.26263 | 34894 ft | 419 kts | 180° |
| 2026-05-04 17:36 | 48.00685 | 2.26447 | 34944 ft | 414 kts | 180° |
| 2026-05-04 17:37 | 47.94971 | 2.26827 | 34947 ft | 410 kts | 180° |
| 2026-05-04 17:37 | 47.89270 | 2.27197 | 34948 ft | 409 kts | 180° |
| 2026-05-04 17:38 | 47.83583 | 2.27561 | 34947 ft | 409 kts | 180° |
| 2026-05-04 17:38 | 47.77886 | 2.27916 | 34919 ft | 409 kts | 180° |
| 2026-05-04 17:39 | 47.69360 | 2.28452 | 34932 ft | 408 kts | 180° |
| 2026-05-04 17:39 | 47.63729 | 2.28810 | 34934 ft | 408 kts | 180° |
| 2026-05-04 17:40 | 47.58060 | 2.29171 | 34935 ft | 407 kts | 180° |
| 2026-05-04 17:40 | 47.53402 | 2.29464 | 34933 ft | 407 kts | 180° |
| 2026-05-04 17:41 | 47.48569 | 2.29766 | 34929 ft | 407 kts | 180° |
| 2026-05-04 17:41 | 47.42910 | 2.30113 | 34928 ft | 407 kts | 180° |
| 2026-05-04 17:42 | 47.37255 | 2.30464 | 34930 ft | 407 kts | 180° |
| 2026-05-04 17:42 | 47.31600 | 2.30816 | 34923 ft | 407 kts | 180° |
| 2026-05-04 17:43 | 47.25941 | 2.31164 | 34923 ft | 407 kts | 180° |
| 2026-05-04 17:43 | 47.20282 | 2.31522 | 34923 ft | 407 kts | 180° |
| 2026-05-04 17:44 | 47.14623 | 2.31881 | 34917 ft | 407 kts | 180° |
| 2026-05-04 17:44 | 47.08963 | 2.32230 | 34914 ft | 407 kts | 180° |
| 2026-05-04 17:45 | 47.03336 | 2.32568 | 34918 ft | 407 kts | 180° |
| 2026-05-04 17:45 | 46.97682 | 2.32912 | 34919 ft | 407 kts | 180° |
| 2026-05-04 17:46 | 46.92023 | 2.33260 | 34916 ft | 407 kts | 180° |
| 2026-05-04 17:46 | 46.86367 | 2.33609 | 34921 ft | 406 kts | 181° |
| 2026-05-04 17:47 | 46.80821 | 2.32525 | 34925 ft | 402 kts | 196° |
| 2026-05-04 17:47 | 46.75408 | 2.30425 | 34924 ft | 402 kts | 196° |
| 2026-05-04 17:48 | 46.71536 | 2.28938 | 34920 ft | 402 kts | 195° |
| 2026-05-04 17:48 | 46.66119 | 2.26865 | 34917 ft | 402 kts | 195° |
| 2026-05-04 17:49 | 46.62990 | 2.25664 | 34917 ft | 402 kts | 196° |
| 2026-05-04 17:49 | 46.57994 | 2.23750 | 34914 ft | 402 kts | 195° |
| 2026-05-04 17:50 | 46.52553 | 2.21671 | 34923 ft | 402 kts | 196° |
| 2026-05-04 17:50 | 46.47152 | 2.19612 | 34930 ft | 401 kts | 195° |
| 2026-05-04 17:51 | 46.41756 | 2.17566 | 34931 ft | 400 kts | 195° |
| 2026-05-04 17:51 | 46.36370 | 2.15523 | 34932 ft | 400 kts | 195° |
| 2026-05-04 17:52 | 46.30987 | 2.13482 | 34926 ft | 400 kts | 195° |
| 2026-05-04 17:52 | 46.25607 | 2.11448 | 34927 ft | 399 kts | 195° |
| 2026-05-04 17:53 | 46.20238 | 2.09418 | 34930 ft | 399 kts | 195° |
| 2026-05-04 17:53 | 46.14794 | 2.08155 | 34923 ft | 400 kts | 189° |
| 2026-05-04 17:54 | 46.09271 | 2.07141 | 34920 ft | 400 kts | 189° |
| 2026-05-04 17:54 | 46.03756 | 2.06130 | 34919 ft | 400 kts | 189° |
| 2026-05-04 17:55 | 45.98237 | 2.05115 | 34925 ft | 400 kts | 189° |
| 2026-05-04 17:55 | 45.92718 | 2.04096 | 34914 ft | 400 kts | 189° |
| 2026-05-04 17:56 | 45.87188 | 2.03064 | 34922 ft | 400 kts | 189° |
| 2026-05-04 17:56 | 45.81690 | 2.02056 | 34925 ft | 401 kts | 189° |
| 2026-05-04 17:57 | 45.76168 | 2.01049 | 34923 ft | 401 kts | 189° |
| 2026-05-04 17:57 | 45.70618 | 2.00031 | 34922 ft | 401 kts | 189° |
| 2026-05-04 17:58 | 45.65160 | 1.99035 | 34930 ft | 401 kts | 189° |
| 2026-05-04 17:58 | 45.59669 | 1.98035 | 34935 ft | 401 kts | 189° |
| 2026-05-04 17:59 | 45.54129 | 1.97029 | 34930 ft | 401 kts | 189° |
| 2026-05-04 18:00 | 45.45908 | 1.95543 | 34936 ft | 400 kts | 189° |
| 2026-05-04 18:00 | 45.40380 | 1.94546 | 34945 ft | 400 kts | 189° |
| 2026-05-04 18:01 | 45.34853 | 1.93544 | 34940 ft | 400 kts | 189° |
| 2026-05-04 18:01 | 45.29332 | 1.92541 | 34967 ft | 399 kts | 189° |
| 2026-05-04 18:02 | 45.21102 | 1.91056 | 34969 ft | 396 kts | 188° |
| 2026-05-04 18:02 | 45.15635 | 1.90085 | 34953 ft | 396 kts | 188° |
| 2026-05-04 18:03 | 45.10178 | 1.89110 | 34959 ft | 395 kts | 188° |
| 2026-05-04 18:03 | 45.07485 | 1.88627 | 34762 ft | 395 kts | 188° |
| 2026-05-04 18:03 | 45.04758 | 1.88140 | 34116 ft | 395 kts | 188° |
| 2026-05-04 18:04 | 45.02027 | 1.87657 | 33192 ft | 398 kts | 188° |
| 2026-05-04 18:04 | 44.99262 | 1.87170 | 32294 ft | 401 kts | 187° |
| 2026-05-04 18:04 | 44.93735 | 1.86189 | 30981 ft | 397 kts | 187° |
| 2026-05-04 18:05 | 44.91005 | 1.85702 | 30447 ft | 393 kts | 187° |
| 2026-05-04 18:05 | 44.88294 | 1.85217 | 29879 ft | 390 kts | 186° |
| 2026-05-04 18:05 | 44.85611 | 1.84737 | 29317 ft | 386 kts | 187° |
| 2026-05-04 18:05 | 44.82966 | 1.84267 | 28794 ft | 381 kts | 187° |
| 2026-05-04 18:06 | 44.77761 | 1.83346 | 27771 ft | 373 kts | 187° |
| 2026-05-04 18:06 | 44.75230 | 1.82897 | 27277 ft | 369 kts | 187° |
| 2026-05-04 18:06 | 44.72694 | 1.82449 | 26780 ft | 366 kts | 187° |
| 2026-05-04 18:07 | 44.70142 | 1.81998 | 26287 ft | 364 kts | 187° |
| 2026-05-04 18:07 | 44.67672 | 1.81560 | 25802 ft | 362 kts | 187° |
| 2026-05-04 18:07 | 44.65174 | 1.81117 | 25335 ft | 360 kts | 187° |
| 2026-05-04 18:07 | 44.62693 | 1.80681 | 24860 ft | 358 kts | 187° |
| 2026-05-04 18:08 | 44.60258 | 1.80260 | 24405 ft | 357 kts | 187° |
| 2026-05-04 18:08 | 44.57790 | 1.79837 | 23952 ft | 356 kts | 187° |
| 2026-05-04 18:08 | 44.55334 | 1.79413 | 23513 ft | 355 kts | 187° |
| 2026-05-04 18:08 | 44.52882 | 1.78983 | 23030 ft | 353 kts | 187° |
| 2026-05-04 18:09 | 44.48049 | 1.78125 | 22209 ft | 346 kts | 188° |
| 2026-05-04 18:09 | 44.43312 | 1.77287 | 21401 ft | 339 kts | 188° |
| 2026-05-04 18:10 | 44.40981 | 1.76880 | 21002 ft | 335 kts | 188° |
| 2026-05-04 18:10 | 44.38678 | 1.76480 | 20600 ft | 332 kts | 187° |
| 2026-05-04 18:10 | 44.36425 | 1.76092 | 20198 ft | 329 kts | 187° |
| 2026-05-04 18:10 | 44.34157 | 1.75700 | 19793 ft | 328 kts | 188° |
| 2026-05-04 18:11 | 44.31901 | 1.75297 | 19373 ft | 326 kts | 190° |
| 2026-05-04 18:11 | 44.29721 | 1.74496 | 18977 ft | 324 kts | 201° |
| 2026-05-04 18:11 | 44.27668 | 1.73081 | 18590 ft | 338 kts | 212° |
| 2026-05-04 18:11 | 44.25698 | 1.71201 | 18185 ft | 344 kts | 214° |
| 2026-05-04 18:12 | 44.23730 | 1.69311 | 17761 ft | 344 kts | 214° |
| 2026-05-04 18:12 | 44.21762 | 1.67435 | 17364 ft | 343 kts | 214° |
| 2026-05-04 18:12 | 44.19790 | 1.65558 | 16967 ft | 342 kts | 214° |
| 2026-05-04 18:12 | 44.17832 | 1.63693 | 16576 ft | 341 kts | 214° |
| 2026-05-04 18:13 | 44.15875 | 1.61829 | 16198 ft | 339 kts | 214° |
| 2026-05-04 18:13 | 44.13931 | 1.59975 | 15800 ft | 338 kts | 214° |
| 2026-05-04 18:13 | 44.10072 | 1.56293 | 15026 ft | 335 kts | 214° |
| 2026-05-04 18:14 | 44.08155 | 1.54467 | 14640 ft | 334 kts | 214° |
| 2026-05-04 18:14 | 44.06243 | 1.52651 | 14261 ft | 332 kts | 214° |
| 2026-05-04 18:14 | 44.04339 | 1.50846 | 13884 ft | 329 kts | 214° |
| 2026-05-04 18:15 | 44.00579 | 1.47279 | 13092 ft | 326 kts | 214° |
| 2026-05-04 18:15 | 43.96523 | 1.44598 | 12346 ft | 324 kts | 194° |
| 2026-05-04 18:15 | 43.94338 | 1.44052 | 11984 ft | 323 kts | 191° |
| 2026-05-04 18:16 | 43.92126 | 1.43529 | 11603 ft | 321 kts | 191° |
| 2026-05-04 18:16 | 43.89922 | 1.43001 | 11227 ft | 320 kts | 191° |
| 2026-05-04 18:16 | 43.87734 | 1.42473 | 10857 ft | 319 kts | 191° |
| 2026-05-04 18:17 | 43.83337 | 1.42196 | 10278 ft | 312 kts | 171° |
| 2026-05-04 18:17 | 43.81311 | 1.43114 | 10150 ft | 303 kts | 156° |
| 2026-05-04 18:17 | 43.77951 | 1.46363 | 9805 ft | 289 kts | 144° |
| 2026-05-04 18:18 | 43.76358 | 1.48081 | 9586 ft | 289 kts | 144° |
| 2026-05-04 18:18 | 43.74776 | 1.49787 | 9249 ft | 288 kts | 144° |
| 2026-05-04 18:18 | 43.73202 | 1.51484 | 8922 ft | 287 kts | 144° |
| 2026-05-04 18:18 | 43.71649 | 1.53155 | 8594 ft | 286 kts | 143° |
| 2026-05-04 18:19 | 43.68483 | 1.56554 | 7900 ft | 287 kts | 143° |
| 2026-05-04 18:19 | 43.66933 | 1.58217 | 7555 ft | 286 kts | 144° |
| 2026-05-04 18:19 | 43.65360 | 1.59907 | 7214 ft | 285 kts | 144° |
| 2026-05-04 18:20 | 43.63788 | 1.61565 | 6867 ft | 284 kts | 147° |
| 2026-05-04 18:20 | 43.62032 | 1.62730 | 6531 ft | 280 kts | 165° |
| 2026-05-04 18:20 | 43.60121 | 1.63160 | 6235 ft | 278 kts | 181° |
| 2026-05-04 18:20 | 43.58219 | 1.62933 | 6073 ft | 271 kts | 189° |
| 2026-05-04 18:21 | 43.56384 | 1.62624 | 5951 ft | 261 kts | 189° |
| 2026-05-04 18:21 | 43.54602 | 1.62331 | 5795 ft | 257 kts | 190° |
| 2026-05-04 18:21 | 43.52812 | 1.62036 | 5436 ft | 260 kts | 189° |
| 2026-05-04 18:21 | 43.51022 | 1.61732 | 5136 ft | 258 kts | 192° |
| 2026-05-04 18:22 | 43.49397 | 1.60874 | 4744 ft | 248 kts | 218° |
| 2026-05-04 18:22 | 43.48191 | 1.59250 | 4378 ft | 241 kts | 240° |
| 2026-05-04 18:22 | 43.47549 | 1.57175 | 4051 ft | 233 kts | 261° |
| 2026-05-04 18:22 | 43.47230 | 1.55068 | 3978 ft | 218 kts | 262° |
| 2026-05-04 18:23 | 43.47312 | 1.53089 | 3885 ft | 205 kts | 291° |
| 2026-05-04 18:23 | 43.48105 | 1.51517 | 3772 ft | 198 kts | 319° |
| 2026-05-04 18:23 | 43.49200 | 1.50369 | 3591 ft | 198 kts | 322° |
| 2026-05-04 18:23 | 43.50303 | 1.49236 | 3358 ft | 197 kts | 321° |
| 2026-05-04 18:24 | 43.51381 | 1.48122 | 3107 ft | 196 kts | 320° |
| 2026-05-04 18:24 | 43.52472 | 1.46993 | 2851 ft | 195 kts | 320° |
| 2026-05-04 18:24 | 43.53558 | 1.45866 | 2591 ft | 195 kts | 319° |
| 2026-05-04 18:24 | 43.54629 | 1.44759 | 2342 ft | 189 kts | 320° |
| 2026-05-04 18:25 | 43.55653 | 1.43698 | 2115 ft | 179 kts | 319° |
| 2026-05-04 18:25 | 43.56613 | 1.42705 | 1848 ft | 167 kts | 320° |
| 2026-05-04 18:25 | 43.57490 | 1.41794 | 1642 ft | 146 kts | 320° |
| 2026-05-04 18:25 | 43.58251 | 1.41004 | 1433 ft | 132 kts | 319° |
| 2026-05-04 18:26 | 43.58977 | 1.40248 | 1270 ft | 128 kts | 318° |
| 2026-05-04 18:26 | 43.59675 | 1.39522 | 1090 ft | 131 kts | 320° |
| 2026-05-04 18:26 | 43.60393 | 1.38777 | 921 ft | 127 kts | 320° |
| 2026-05-04 18:26 | 43.61099 | 1.38047 | 740 ft | 127 kts | 322° |
| 2026-05-04 18:27 | 43.61808 | 1.37305 | 568 ft | 128 kts | 321° |
| 2026-05-04 18:27 | 43.62468 | 1.36611 | 494 ft | 100 kts | 323° |
| 2026-05-04 18:27 | 43.62889 | 1.36176 | 491 ft | 57 kts | 323° |
| 2026-05-04 18:27 | 43.63175 | 1.35880 | 494 ft | 46 kts | 323° |
| 2026-05-04 18:28 | 43.63410 | 1.35637 | 494 ft | 39 kts | 323° |
| 2026-05-04 18:28 | 43.63623 | 1.35586 | 494 ft | 30 kts | 42° |
| 2026-05-04 18:28 | 43.63670 | 1.35666 | 490 ft | 0 kts | 53° |
| 2026-05-04 18:29 | 43.63674 | 1.35674 | 490 ft | 9 kts | 53° |
| 2026-05-04 18:29 | 43.63747 | 1.35809 | 489 ft | 18 kts | 52° |
| 2026-05-04 18:29 | 43.63816 | 1.35933 | 488 ft | 14 kts | 57° |
| 2026-05-04 18:29 | 43.63790 | 1.36019 | 494 ft | 8 kts | 142° |
| 2026-05-04 18:30 | 43.63706 | 1.36106 | 488 ft | 11 kts | 143° |
| 2026-05-04 18:30 | 43.63639 | 1.36174 | 489 ft | 16 kts | 143° |
| 2026-05-04 18:30 | 43.63548 | 1.36271 | 494 ft | 17 kts | 142° |
| 2026-05-04 18:31 | 43.63453 | 1.36371 | 494 ft | 16 kts | 143° |
| 2026-05-04 18:31 | 43.63365 | 1.36462 | 494 ft | 18 kts | 143° |
| 2026-05-04 18:31 | 43.63264 | 1.36565 | 490 ft | 17 kts | 143° |
| 2026-05-04 18:31 | 43.63164 | 1.36669 | 494 ft | 19 kts | 143° |
| 2026-05-04 18:32 | 43.63100 | 1.36789 | 490 ft | 13 kts | 68° |
| 2026-05-04 18:32 | 43.63106 | 1.36882 | 494 ft | 10 kts | 128° |
| 2026-05-04 18:32 | 43.63119 | 1.36953 | 494 ft | 7 kts | 66° |
| 2026-05-04 18:32 | 43.63136 | 1.37006 | 485 ft | 4 kts | 66° |
| 2026-05-04 18:33 | 43.63137 | 1.37011 | 486 ft | 0 kts | 66° |